sensor_id;sensor_type;location;lat;lon;timestamp;P1;durP1;ratioP1;P2;durP2;ratioP2
3000;SDS011;1510;51.072;6.678;2023-04-03T00:00:30;590.97;;;555.30;;
3000;SDS011;1510;51.072;6.678;2023-04-03T00:02:59;589.03;;;553.17;;
3000;SDS011;1510;51.072;6.678;2023-04-03T00:05:26;606.28;;;569.13;;
3000;SDS011;1510;51.072;6.678;2023-04-03T00:07:53;615.58;;;577.92;;
3000;SDS011;1510;51.072;6.678;2023-04-03T00:10:20;613.50;;;576.20;;
3000;SDS011;1510;51.072;6.678;2023-04-03T00:12:47;611.10;;;574.57;;
3000;SDS011;1510;51.072;6.678;2023-04-03T00:15:14;613.03;;;576.17;;
3000;SDS011;1510;51.072;6.678;2023-04-03T00:17:43;628.05;;;588.42;;
3000;SDS011;1510;51.072;6.678;2023-04-03T00:20:12;652.43;;;609.27;;
3000;SDS011;1510;51.072;6.678;2023-04-03T00:22:38;652.28;;;609.90;;
3000;SDS011;1510;51.072;6.678;2023-04-03T00:25:06;646.60;;;604.87;;
3000;SDS011;1510;51.072;6.678;2023-04-03T00:27:35;656.50;;;613.80;;
3000;SDS011;1510;51.072;6.678;2023-04-03T00:30:05;666.17;;;622.80;;
3000;SDS011;1510;51.072;6.678;2023-04-03T00:32:33;671.47;;;627.10;;
3000;SDS011;1510;51.072;6.678;2023-04-03T00:35:00;723.75;;;674.90;;
3000;SDS011;1510;51.072;6.678;2023-04-03T00:37:29;717.37;;;668.30;;
3000;SDS011;1510;51.072;6.678;2023-04-03T00:39:55;743.42;;;690.63;;
3000;SDS011;1510;51.072;6.678;2023-04-03T00:42:22;752.42;;;698.72;;
3000;SDS011;1510;51.072;6.678;2023-04-03T00:47:49;769.40;;;711.72;;
3000;SDS011;1510;51.072;6.678;2023-04-03T00:50:16;768.65;;;713.88;;
3000;SDS011;1510;51.072;6.678;2023-04-03T00:52:45;764.38;;;710.28;;
3000;SDS011;1510;51.072;6.678;2023-04-03T00:55:14;757.88;;;704.47;;
3000;SDS011;1510;51.072;6.678;2023-04-03T00:57:50;744.72;;;693.13;;
3000;SDS011;1510;51.072;6.678;2023-04-03T01:00:20;741.95;;;691.72;;
3000;SDS011;1510;51.072;6.678;2023-04-03T01:02:48;730.90;;;680.85;;
3000;SDS011;1510;51.072;6.678;2023-04-03T01:05:16;745.45;;;693.88;;
3000;SDS011;1510;51.072;6.678;2023-04-03T01:07:46;747.13;;;694.10;;
3000;SDS011;1510;51.072;6.678;2023-04-03T01:10:15;752.90;;;699.88;;
3000;SDS011;1510;51.072;6.678;2023-04-03T01:12:45;763.17;;;708.00;;
3000;SDS011;1510;51.072;6.678;2023-04-03T01:15:13;786.28;;;731.38;;
3000;SDS011;1510;51.072;6.678;2023-04-03T01:17:43;792.47;;;736.67;;
3000;SDS011;1510;51.072;6.678;2023-04-03T01:20:21;798.25;;;739.25;;
3000;SDS011;1510;51.072;6.678;2023-04-03T01:23:14;793.15;;;733.90;;
3000;SDS011;1510;51.072;6.678;2023-04-03T01:25:49;801.15;;;741.63;;
3000;SDS011;1510;51.072;6.678;2023-04-03T01:28:19;804.13;;;744.80;;
3000;SDS011;1510;51.072;6.678;2023-04-03T01:30:48;796.75;;;736.95;;
3000;SDS011;1510;51.072;6.678;2023-04-03T01:33:24;801.15;;;739.47;;
3000;SDS011;1510;51.072;6.678;2023-04-03T01:35:51;798.25;;;737.40;;
3000;SDS011;1510;51.072;6.678;2023-04-03T01:38:23;819.88;;;758.83;;
3000;SDS011;1510;51.072;6.678;2023-04-03T01:40:50;809.67;;;748.55;;
3000;SDS011;1510;51.072;6.678;2023-04-03T01:43:19;818.45;;;756.85;;
3000;SDS011;1510;51.072;6.678;2023-04-03T01:45:46;808.17;;;746.97;;
3000;SDS011;1510;51.072;6.678;2023-04-03T01:48:19;817.22;;;754.83;;
3000;SDS011;1510;51.072;6.678;2023-04-03T01:50:56;809.28;;;745.53;;
3000;SDS011;1510;51.072;6.678;2023-04-03T01:53:23;810.30;;;746.22;;
3000;SDS011;1510;51.072;6.678;2023-04-03T01:55:52;810.15;;;744.70;;
3000;SDS011;1510;51.072;6.678;2023-04-03T01:58:21;807.72;;;742.70;;
3000;SDS011;1510;51.072;6.678;2023-04-03T02:00:50;811.13;;;746.60;;
3000;SDS011;1510;51.072;6.678;2023-04-03T02:03:22;815.83;;;751.17;;
3000;SDS011;1510;51.072;6.678;2023-04-03T02:05:57;825.35;;;761.80;;
3000;SDS011;1510;51.072;6.678;2023-04-03T02:08:25;813.67;;;749.15;;
3000;SDS011;1510;51.072;6.678;2023-04-03T02:10:54;827.83;;;762.67;;
3000;SDS011;1510;51.072;6.678;2023-04-03T02:13:21;821.95;;;758.78;;
3000;SDS011;1510;51.072;6.678;2023-04-03T02:15:48;824.55;;;759.58;;
3000;SDS011;1510;51.072;6.678;2023-04-03T02:18:15;825.50;;;760.70;;
3000;SDS011;1510;51.072;6.678;2023-04-03T02:20:48;846.70;;;780.75;;
3000;SDS011;1510;51.072;6.678;2023-04-03T02:26:06;844.90;;;778.75;;
3000;SDS011;1510;51.072;6.678;2023-04-03T02:28:40;838.15;;;772.00;;
3000;SDS011;1510;51.072;6.678;2023-04-03T02:31:07;828.55;;;763.13;;
3000;SDS011;1510;51.072;6.678;2023-04-03T02:33:37;820.97;;;755.45;;
3000;SDS011;1510;51.072;6.678;2023-04-03T02:36:07;823.30;;;757.00;;
3000;SDS011;1510;51.072;6.678;2023-04-03T02:38:42;825.55;;;759.60;;
3000;SDS011;1510;51.072;6.678;2023-04-03T02:41:10;821.63;;;755.28;;
3000;SDS011;1510;51.072;6.678;2023-04-03T02:43:43;824.53;;;758.10;;
3000;SDS011;1510;51.072;6.678;2023-04-03T02:46:11;822.10;;;754.13;;
3000;SDS011;1510;51.072;6.678;2023-04-03T02:48:40;827.20;;;759.38;;
3000;SDS011;1510;51.072;6.678;2023-04-03T02:51:10;828.97;;;760.58;;
3000;SDS011;1510;51.072;6.678;2023-04-03T02:53:43;837.38;;;770.60;;
3000;SDS011;1510;51.072;6.678;2023-04-03T02:56:13;846.13;;;780.00;;
3000;SDS011;1510;51.072;6.678;2023-04-03T02:58:45;852.85;;;786.10;;
3000;SDS011;1510;51.072;6.678;2023-04-03T03:01:12;858.45;;;800.03;;
3000;SDS011;1510;51.072;6.678;2023-04-03T03:03:39;866.53;;;803.78;;
3000;SDS011;1510;51.072;6.678;2023-04-03T03:06:07;859.50;;;795.03;;
3000;SDS011;1510;51.072;6.678;2023-04-03T03:08:38;858.05;;;790.03;;
3000;SDS011;1510;51.072;6.678;2023-04-03T03:11:08;855.08;;;788.53;;
3000;SDS011;1510;51.072;6.678;2023-04-03T03:13:38;844.30;;;777.63;;
3000;SDS011;1510;51.072;6.678;2023-04-03T03:16:15;852.47;;;786.47;;
3000;SDS011;1510;51.072;6.678;2023-04-03T03:18:44;850.28;;;782.92;;
3000;SDS011;1510;51.072;6.678;2023-04-03T03:21:15;841.00;;;773.15;;
3000;SDS011;1510;51.072;6.678;2023-04-03T03:23:45;816.92;;;750.60;;
3000;SDS011;1510;51.072;6.678;2023-04-03T03:26:17;817.85;;;752.63;;
3000;SDS011;1510;51.072;6.678;2023-04-03T03:28:46;758.67;;;699.55;;
3000;SDS011;1510;51.072;6.678;2023-04-03T03:31:18;644.83;;;594.42;;
3000;SDS011;1510;51.072;6.678;2023-04-03T03:33:47;574.05;;;530.20;;
3000;SDS011;1510;51.072;6.678;2023-04-03T03:36:14;540.65;;;501.52;;
3000;SDS011;1510;51.072;6.678;2023-04-03T03:38:43;497.42;;;464.42;;
3000;SDS011;1510;51.072;6.678;2023-04-03T03:41:18;499.08;;;466.75;;
3000;SDS011;1510;51.072;6.678;2023-04-03T03:43:55;485.58;;;453.92;;
3000;SDS011;1510;51.072;6.678;2023-04-03T03:46:24;507.10;;;474.20;;
3000;SDS011;1510;51.072;6.678;2023-04-03T03:48:54;509.48;;;477.63;;
3000;SDS011;1510;51.072;6.678;2023-04-03T03:51:21;471.77;;;442.13;;
3000;SDS011;1510;51.072;6.678;2023-04-03T03:53:51;455.52;;;427.30;;
3000;SDS011;1510;51.072;6.678;2023-04-03T03:56:19;444.95;;;419.45;;
3000;SDS011;1510;51.072;6.678;2023-04-03T03:58:46;444.20;;;419.50;;
3000;SDS011;1510;51.072;6.678;2023-04-03T04:01:16;449.27;;;424.03;;
3000;SDS011;1510;51.072;6.678;2023-04-03T04:03:44;454.73;;;427.93;;
3000;SDS011;1510;51.072;6.678;2023-04-03T04:06:11;439.00;;;413.70;;
3000;SDS011;1510;51.072;6.678;2023-04-03T04:08:40;447.02;;;421.63;;
3000;SDS011;1510;51.072;6.678;2023-04-03T04:11:14;440.65;;;414.70;;
3000;SDS011;1510;51.072;6.678;2023-04-03T04:13:49;469.50;;;439.13;;
3000;SDS011;1510;51.072;6.678;2023-04-03T04:16:16;462.02;;;435.05;;
3000;SDS011;1510;51.072;6.678;2023-04-03T04:18:45;455.35;;;429.45;;
3000;SDS011;1510;51.072;6.678;2023-04-03T04:21:12;486.93;;;457.57;;
3000;SDS011;1510;51.072;6.678;2023-04-03T04:23:41;518.88;;;486.77;;
3000;SDS011;1510;51.072;6.678;2023-04-03T04:26:10;541.27;;;507.37;;
3000;SDS011;1510;51.072;6.678;2023-04-03T04:28:39;533.60;;;500.97;;
3000;SDS011;1510;51.072;6.678;2023-04-03T04:31:11;519.67;;;487.80;;
3000;SDS011;1510;51.072;6.678;2023-04-03T04:33:39;498.13;;;468.87;;
3000;SDS011;1510;51.072;6.678;2023-04-03T04:36:06;484.17;;;457.17;;
3000;SDS011;1510;51.072;6.678;2023-04-03T04:38:35;482.67;;;455.08;;
3000;SDS011;1510;51.072;6.678;2023-04-03T04:41:08;490.17;;;461.88;;
3000;SDS011;1510;51.072;6.678;2023-04-03T04:43:36;509.50;;;479.10;;
3000;SDS011;1510;51.072;6.678;2023-04-03T04:46:05;512.75;;;481.85;;
3000;SDS011;1510;51.072;6.678;2023-04-03T04:48:35;506.35;;;476.80;;
3000;SDS011;1510;51.072;6.678;2023-04-03T04:51:03;524.10;;;491.80;;
3000;SDS011;1510;51.072;6.678;2023-04-03T04:53:30;531.05;;;497.65;;
3000;SDS011;1510;51.072;6.678;2023-04-03T04:55:58;536.05;;;502.05;;
3000;SDS011;1510;51.072;6.678;2023-04-03T04:58:25;535.60;;;501.00;;
3000;SDS011;1510;51.072;6.678;2023-04-03T05:00:58;541.03;;;507.40;;
3000;SDS011;1510;51.072;6.678;2023-04-03T05:03:30;526.88;;;493.95;;
3000;SDS011;1510;51.072;6.678;2023-04-03T05:06:00;545.03;;;509.92;;
3000;SDS011;1510;51.072;6.678;2023-04-03T05:08:33;596.35;;;558.53;;
3000;SDS011;1510;51.072;6.678;2023-04-03T05:11:09;597.85;;;559.88;;
3000;SDS011;1510;51.072;6.678;2023-04-03T05:13:36;621.85;;;581.92;;
3000;SDS011;1510;51.072;6.678;2023-04-03T05:16:03;634.25;;;593.70;;
3000;SDS011;1510;51.072;6.678;2023-04-03T05:18:30;634.60;;;595.85;;
3000;SDS011;1510;51.072;6.678;2023-04-03T05:21:02;635.22;;;594.22;;
3000;SDS011;1510;51.072;6.678;2023-04-03T05:23:29;627.22;;;587.00;;
3000;SDS011;1510;51.072;6.678;2023-04-03T05:25:56;644.50;;;602.28;;
3000;SDS011;1510;51.072;6.678;2023-04-03T05:28:23;634.33;;;592.90;;
3000;SDS011;1510;51.072;6.678;2023-04-03T05:30:54;637.70;;;595.20;;
3000;SDS011;1510;51.072;6.678;2023-04-03T05:33:21;631.53;;;589.97;;
3000;SDS011;1510;51.072;6.678;2023-04-03T05:35:52;641.15;;;598.60;;
3000;SDS011;1510;51.072;6.678;2023-04-03T05:38:21;630.05;;;588.40;;
3000;SDS011;1510;51.072;6.678;2023-04-03T05:40:48;634.90;;;592.90;;
3000;SDS011;1510;51.072;6.678;2023-04-03T05:43:15;665.97;;;620.42;;
3000;SDS011;1510;51.072;6.678;2023-04-03T05:45:42;680.95;;;634.70;;
3000;SDS011;1510;51.072;6.678;2023-04-03T05:48:09;679.90;;;633.35;;
3000;SDS011;1510;51.072;6.678;2023-04-03T05:50:36;676.28;;;630.03;;
3000;SDS011;1510;51.072;6.678;2023-04-03T05:53:06;674.70;;;628.75;;
3000;SDS011;1510;51.072;6.678;2023-04-03T05:55:40;676.33;;;631.13;;
3000;SDS011;1510;51.072;6.678;2023-04-03T05:58:07;667.58;;;623.47;;
3000;SDS011;1510;51.072;6.678;2023-04-03T06:00:34;677.78;;;631.28;;
3000;SDS011;1510;51.072;6.678;2023-04-03T06:03:01;676.83;;;630.08;;
3000;SDS011;1510;51.072;6.678;2023-04-03T06:05:31;700.60;;;653.42;;
3000;SDS011;1510;51.072;6.678;2023-04-03T06:07:58;728.63;;;681.28;;
3000;SDS011;1510;51.072;6.678;2023-04-03T06:10:25;726.30;;;678.33;;
3000;SDS011;1510;51.072;6.678;2023-04-03T06:12:55;722.00;;;674.10;;
3000;SDS011;1510;51.072;6.678;2023-04-03T06:15:22;722.78;;;676.10;;
3000;SDS011;1510;51.072;6.678;2023-04-03T06:17:49;722.70;;;675.60;;
3000;SDS011;1510;51.072;6.678;2023-04-03T06:20:16;723.53;;;673.77;;
3000;SDS011;1510;51.072;6.678;2023-04-03T06:22:43;709.73;;;658.53;;
3000;SDS011;1510;51.072;6.678;2023-04-03T06:25:10;715.27;;;665.60;;
3000;SDS011;1510;51.072;6.678;2023-04-03T06:27:38;706.10;;;657.67;;
3000;SDS011;1510;51.072;6.678;2023-04-03T06:30:07;688.80;;;642.05;;
3000;SDS011;1510;51.072;6.678;2023-04-03T06:32:34;673.25;;;626.13;;
3000;SDS011;1510;51.072;6.678;2023-04-03T06:35:01;658.15;;;616.83;;
3000;SDS011;1510;51.072;6.678;2023-04-03T06:37:28;665.57;;;622.20;;
3000;SDS011;1510;51.072;6.678;2023-04-03T06:39:55;659.23;;;617.40;;
3000;SDS011;1510;51.072;6.678;2023-04-03T06:42:23;630.00;;;590.70;;
3000;SDS011;1510;51.072;6.678;2023-04-03T06:44:50;655.83;;;609.30;;
3000;SDS011;1510;51.072;6.678;2023-04-03T06:47:18;608.17;;;566.23;;
3000;SDS011;1510;51.072;6.678;2023-04-03T06:49:45;538.73;;;504.73;;
3000;SDS011;1510;51.072;6.678;2023-04-03T06:52:12;447.53;;;423.83;;
3000;SDS011;1510;51.072;6.678;2023-04-03T06:54:39;430.00;;;408.63;;
3000;SDS011;1510;51.072;6.678;2023-04-03T06:57:06;287.43;;;274.60;;
3000;SDS011;1510;51.072;6.678;2023-04-03T06:59:34;282.17;;;270.73;;
3000;SDS011;1510;51.072;6.678;2023-04-03T07:02:01;161.17;;;154.50;;
3000;SDS011;1510;51.072;6.678;2023-04-03T07:04:29;78.80;;;75.60;;
3000;SDS011;1510;51.072;6.678;2023-04-03T07:06:56;39.47;;;37.60;;
3000;SDS011;1510;51.072;6.678;2023-04-03T07:09:23;15.93;;;14.50;;
3000;SDS011;1510;51.072;6.678;2023-04-03T07:11:50;9.17;;;8.30;;
3000;SDS011;1510;51.072;6.678;2023-04-03T07:14:17;6.80;;;5.77;;
3000;SDS011;1510;51.072;6.678;2023-04-03T07:16:43;6.77;;;5.13;;
3000;SDS011;1510;51.072;6.678;2023-04-03T07:19:10;6.00;;;3.80;;
3000;SDS011;1510;51.072;6.678;2023-04-03T07:21:42;7.60;;;4.23;;
3000;SDS011;1510;51.072;6.678;2023-04-03T07:24:08;14.40;;;5.90;;
3000;SDS011;1510;51.072;6.678;2023-04-03T07:26:36;7.70;;;3.87;;
3000;SDS011;1510;51.072;6.678;2023-04-03T07:29:04;9.10;;;4.10;;
3000;SDS011;1510;51.072;6.678;2023-04-03T07:39:25;8.80;;;3.83;;
3000;SDS011;1510;51.072;6.678;2023-04-03T07:41:56;6.17;;;3.23;;
3000;SDS011;1510;51.072;6.678;2023-04-03T07:44:48;7.80;;;3.33;;
3000;SDS011;1510;51.072;6.678;2023-04-03T07:47:36;11.50;;;3.00;;
3000;SDS011;1510;51.072;6.678;2023-04-03T07:50:06;7.80;;;2.63;;
3000;SDS011;1510;51.072;6.678;2023-04-03T07:52:40;7.20;;;2.60;;
3000;SDS011;1510;51.072;6.678;2023-04-03T07:55:09;7.63;;;2.43;;
3000;SDS011;1510;51.072;6.678;2023-04-03T07:57:36;4.30;;;2.80;;
3000;SDS011;1510;51.072;6.678;2023-04-03T08:00:11;9.50;;;2.83;;
3000;SDS011;1510;51.072;6.678;2023-04-03T08:02:42;4.10;;;1.93;;
3000;SDS011;1510;51.072;6.678;2023-04-03T08:05:15;7.73;;;2.93;;
3000;SDS011;1510;51.072;6.678;2023-04-03T08:07:42;8.17;;;3.07;;
3000;SDS011;1510;51.072;6.678;2023-04-03T08:10:11;5.90;;;2.63;;
3000;SDS011;1510;51.072;6.678;2023-04-03T08:12:38;4.33;;;1.80;;
3000;SDS011;1510;51.072;6.678;2023-04-03T08:15:05;5.00;;;1.90;;
3000;SDS011;1510;51.072;6.678;2023-04-03T08:17:33;9.67;;;2.20;;
3000;SDS011;1510;51.072;6.678;2023-04-03T08:20:00;8.17;;;2.20;;
3000;SDS011;1510;51.072;6.678;2023-04-03T08:22:28;6.40;;;2.03;;
3000;SDS011;1510;51.072;6.678;2023-04-03T08:24:56;5.57;;;2.00;;
3000;SDS011;1510;51.072;6.678;2023-04-03T08:27:24;5.97;;;1.80;;
3000;SDS011;1510;51.072;6.678;2023-04-03T08:29:56;5.60;;;1.93;;
3000;SDS011;1510;51.072;6.678;2023-04-03T08:32:23;5.30;;;2.03;;
3000;SDS011;1510;51.072;6.678;2023-04-03T08:34:52;5.10;;;1.90;;
3000;SDS011;1510;51.072;6.678;2023-04-03T08:37:20;7.73;;;1.87;;
3000;SDS011;1510;51.072;6.678;2023-04-03T08:39:50;5.80;;;1.80;;
3000;SDS011;1510;51.072;6.678;2023-04-03T08:42:19;4.97;;;1.90;;
3000;SDS011;1510;51.072;6.678;2023-04-03T08:45:04;5.27;;;1.60;;
3000;SDS011;1510;51.072;6.678;2023-04-03T08:47:38;4.80;;;1.80;;
3000;SDS011;1510;51.072;6.678;2023-04-03T08:50:11;8.90;;;2.27;;
3000;SDS011;1510;51.072;6.678;2023-04-03T08:52:41;5.20;;;2.03;;
3000;SDS011;1510;51.072;6.678;2023-04-03T08:55:14;8.90;;;2.07;;
3000;SDS011;1510;51.072;6.678;2023-04-03T08:57:50;5.90;;;2.10;;
3000;SDS011;1510;51.072;6.678;2023-04-03T09:00:23;5.53;;;1.80;;
3000;SDS011;1510;51.072;6.678;2023-04-03T09:02:55;4.07;;;1.10;;
3000;SDS011;1510;51.072;6.678;2023-04-03T09:05:29;4.10;;;1.23;;
3000;SDS011;1510;51.072;6.678;2023-04-03T09:08:17;4.60;;;1.53;;
3000;SDS011;1510;51.072;6.678;2023-04-03T09:11:03;6.63;;;1.60;;
3000;SDS011;1510;51.072;6.678;2023-04-03T09:13:39;7.57;;;1.37;;
3000;SDS011;1510;51.072;6.678;2023-04-03T09:16:52;4.67;;;1.30;;
3000;SDS011;1510;51.072;6.678;2023-04-03T09:19:44;5.43;;;1.43;;
3000;SDS011;1510;51.072;6.678;2023-04-03T09:22:24;4.23;;;1.30;;
3000;SDS011;1510;51.072;6.678;2023-04-03T09:24:54;4.60;;;1.30;;
3000;SDS011;1510;51.072;6.678;2023-04-03T09:27:25;5.40;;;1.30;;
3000;SDS011;1510;51.072;6.678;2023-04-03T09:29:54;4.03;;;1.27;;
3000;SDS011;1510;51.072;6.678;2023-04-03T09:32:25;4.17;;;1.03;;
3000;SDS011;1510;51.072;6.678;2023-04-03T09:34:55;6.23;;;1.47;;
3000;SDS011;1510;51.072;6.678;2023-04-03T09:37:35;5.63;;;1.70;;
3000;SDS011;1510;51.072;6.678;2023-04-03T09:40:04;4.70;;;1.20;;
3000;SDS011;1510;51.072;6.678;2023-04-03T09:42:32;4.47;;;1.30;;
3000;SDS011;1510;51.072;6.678;2023-04-03T09:45:21;7.87;;;1.53;;
3000;SDS011;1510;51.072;6.678;2023-04-03T09:48:03;5.87;;;1.80;;
3000;SDS011;1510;51.072;6.678;2023-04-03T09:50:33;5.27;;;1.77;;
3000;SDS011;1510;51.072;6.678;2023-04-03T09:53:04;4.97;;;1.20;;
3000;SDS011;1510;51.072;6.678;2023-04-03T09:55:33;8.03;;;1.40;;
3000;SDS011;1510;51.072;6.678;2023-04-03T09:58:22;5.37;;;1.50;;
3000;SDS011;1510;51.072;6.678;2023-04-03T10:00:55;5.07;;;1.50;;
3000;SDS011;1510;51.072;6.678;2023-04-03T10:03:24;5.57;;;1.30;;
3000;SDS011;1510;51.072;6.678;2023-04-03T10:05:56;4.87;;;1.23;;
3000;SDS011;1510;51.072;6.678;2023-04-03T10:08:25;6.57;;;1.40;;
3000;SDS011;1510;51.072;6.678;2023-04-03T10:11:13;5.20;;;1.40;;
3000;SDS011;1510;51.072;6.678;2023-04-03T10:13:50;7.73;;;1.80;;
3000;SDS011;1510;51.072;6.678;2023-04-03T10:16:21;6.00;;;1.40;;
3000;SDS011;1510;51.072;6.678;2023-04-03T10:19:03;8.30;;;1.60;;
3000;SDS011;1510;51.072;6.678;2023-04-03T10:21:53;9.30;;;1.83;;
3000;SDS011;1510;51.072;6.678;2023-04-03T10:24:27;4.90;;;1.10;;
3000;SDS011;1510;51.072;6.678;2023-04-03T10:27:02;6.60;;;1.30;;
3000;SDS011;1510;51.072;6.678;2023-04-03T10:29:36;4.17;;;1.10;;
3000;SDS011;1510;51.072;6.678;2023-04-03T10:32:13;4.30;;;1.10;;
3000;SDS011;1510;51.072;6.678;2023-04-03T10:34:50;8.27;;;1.33;;
3000;SDS011;1510;51.072;6.678;2023-04-03T10:37:25;8.47;;;1.47;;
3000;SDS011;1510;51.072;6.678;2023-04-03T10:40:04;5.20;;;1.20;;
3000;SDS011;1510;51.072;6.678;2023-04-03T10:42:50;4.60;;;1.30;;
3000;SDS011;1510;51.072;6.678;2023-04-03T10:45:24;7.30;;;1.33;;
3000;SDS011;1510;51.072;6.678;2023-04-03T10:48:00;6.10;;;1.40;;
3000;SDS011;1510;51.072;6.678;2023-04-03T10:50:36;4.67;;;1.33;;
3000;SDS011;1510;51.072;6.678;2023-04-03T10:53:11;5.20;;;1.70;;
3000;SDS011;1510;51.072;6.678;2023-04-03T10:55:49;4.80;;;1.30;;
3000;SDS011;1510;51.072;6.678;2023-04-03T10:58:24;6.23;;;1.53;;
3000;SDS011;1510;51.072;6.678;2023-04-03T11:00:57;5.60;;;1.37;;
3000;SDS011;1510;51.072;6.678;2023-04-03T11:03:32;6.37;;;1.30;;
3000;SDS011;1510;51.072;6.678;2023-04-03T11:06:02;4.23;;;1.10;;
3000;SDS011;1510;51.072;6.678;2023-04-03T11:08:33;5.40;;;1.87;;
3000;SDS011;1510;51.072;6.678;2023-04-03T11:11:05;5.50;;;1.30;;
3000;SDS011;1510;51.072;6.678;2023-04-03T11:13:35;4.57;;;1.53;;
3000;SDS011;1510;51.072;6.678;2023-04-03T11:16:06;4.70;;;1.43;;
3000;SDS011;1510;51.072;6.678;2023-04-03T11:18:37;7.93;;;1.43;;
3000;SDS011;1510;51.072;6.678;2023-04-03T11:21:11;5.43;;;1.60;;
3000;SDS011;1510;51.072;6.678;2023-04-03T11:23:43;6.30;;;2.20;;
3000;SDS011;1510;51.072;6.678;2023-04-03T11:26:13;4.67;;;1.20;;
3000;SDS011;1510;51.072;6.678;2023-04-03T11:28:41;4.90;;;1.30;;
3000;SDS011;1510;51.072;6.678;2023-04-03T11:31:12;4.70;;;1.40;;
3000;SDS011;1510;51.072;6.678;2023-04-03T11:33:55;4.57;;;1.03;;
3000;SDS011;1510;51.072;6.678;2023-04-03T11:36:38;4.17;;;1.07;;
3000;SDS011;1510;51.072;6.678;2023-04-03T11:39:09;3.80;;;0.90;;
3000;SDS011;1510;51.072;6.678;2023-04-03T11:41:44;5.63;;;1.43;;
3000;SDS011;1510;51.072;6.678;2023-04-03T11:44:25;4.60;;;0.97;;
3000;SDS011;1510;51.072;6.678;2023-04-03T11:46:56;5.83;;;1.50;;
3000;SDS011;1510;51.072;6.678;2023-04-03T11:58:28;6.20;;;1.43;;
3000;SDS011;1510;51.072;6.678;2023-04-03T12:01:06;4.27;;;1.00;;
3000;SDS011;1510;51.072;6.678;2023-04-03T12:06:50;4.67;;;1.20;;
3000;SDS011;1510;51.072;6.678;2023-04-03T12:09:34;5.70;;;1.00;;
3000;SDS011;1510;51.072;6.678;2023-04-03T12:12:38;5.77;;;1.17;;
3000;SDS011;1510;51.072;6.678;2023-04-03T12:15:19;4.10;;;0.93;;
3000;SDS011;1510;51.072;6.678;2023-04-03T12:21:17;5.57;;;1.43;;
3000;SDS011;1510;51.072;6.678;2023-04-03T12:23:57;5.53;;;1.27;;
3000;SDS011;1510;51.072;6.678;2023-04-03T12:26:27;5.23;;;1.10;;
3000;SDS011;1510;51.072;6.678;2023-04-03T12:28:58;4.10;;;0.93;;
3000;SDS011;1510;51.072;6.678;2023-04-03T12:31:37;4.77;;;1.13;;
3000;SDS011;1510;51.072;6.678;2023-04-03T12:34:15;4.60;;;1.30;;
3000;SDS011;1510;51.072;6.678;2023-04-03T12:36:55;4.80;;;1.10;;
3000;SDS011;1510;51.072;6.678;2023-04-03T12:39:43;5.40;;;1.40;;
3000;SDS011;1510;51.072;6.678;2023-04-03T12:42:22;5.33;;;1.33;;
3000;SDS011;1510;51.072;6.678;2023-04-03T12:45:02;4.50;;;1.00;;
3000;SDS011;1510;51.072;6.678;2023-04-03T12:47:40;4.53;;;1.13;;
3000;SDS011;1510;51.072;6.678;2023-04-03T12:50:21;8.13;;;1.30;;
3000;SDS011;1510;51.072;6.678;2023-04-03T12:52:55;4.50;;;1.23;;
3000;SDS011;1510;51.072;6.678;2023-04-03T12:55:27;5.60;;;1.37;;
3000;SDS011;1510;51.072;6.678;2023-04-03T12:57:54;4.43;;;1.20;;
3000;SDS011;1510;51.072;6.678;2023-04-03T13:00:31;8.03;;;1.00;;
3000;SDS011;1510;51.072;6.678;2023-04-03T13:02:59;4.53;;;1.07;;
3000;SDS011;1510;51.072;6.678;2023-04-03T13:05:29;5.43;;;1.20;;
3000;SDS011;1510;51.072;6.678;2023-04-03T13:07:58;5.47;;;0.93;;
3000;SDS011;1510;51.072;6.678;2023-04-03T13:10:31;4.50;;;0.90;;
3000;SDS011;1510;51.072;6.678;2023-04-03T13:13:08;5.50;;;1.07;;
3000;SDS011;1510;51.072;6.678;2023-04-03T13:15:40;4.80;;;1.30;;
3000;SDS011;1510;51.072;6.678;2023-04-03T13:18:21;4.77;;;1.33;;
3000;SDS011;1510;51.072;6.678;2023-04-03T13:20:48;4.47;;;1.10;;
3000;SDS011;1510;51.072;6.678;2023-04-03T13:23:16;4.20;;;1.20;;
3000;SDS011;1510;51.072;6.678;2023-04-03T13:25:48;6.63;;;1.20;;
3000;SDS011;1510;51.072;6.678;2023-04-03T13:28:26;5.80;;;1.23;;
3000;SDS011;1510;51.072;6.678;2023-04-03T13:30:54;5.97;;;1.07;;
3000;SDS011;1510;51.072;6.678;2023-04-03T13:33:37;4.47;;;1.30;;
3000;SDS011;1510;51.072;6.678;2023-04-03T13:36:05;4.40;;;1.33;;
3000;SDS011;1510;51.072;6.678;2023-04-03T13:38:34;4.77;;;1.40;;
3000;SDS011;1510;51.072;6.678;2023-04-03T13:41:04;5.17;;;1.07;;
3000;SDS011;1510;51.072;6.678;2023-04-03T13:43:49;4.70;;;1.80;;
3000;SDS011;1510;51.072;6.678;2023-04-03T13:46:22;5.67;;;1.30;;
3000;SDS011;1510;51.072;6.678;2023-04-03T13:48:52;5.90;;;1.10;;
3000;SDS011;1510;51.072;6.678;2023-04-03T13:51:21;6.77;;;1.43;;
3000;SDS011;1510;51.072;6.678;2023-04-03T13:53:50;6.70;;;1.20;;
3000;SDS011;1510;51.072;6.678;2023-04-03T13:56:23;4.30;;;0.90;;
3000;SDS011;1510;51.072;6.678;2023-04-03T13:58:59;4.60;;;1.10;;
3000;SDS011;1510;51.072;6.678;2023-04-03T14:04:19;9.00;;;2.23;;
3000;SDS011;1510;51.072;6.678;2023-04-03T14:06:49;4.30;;;1.10;;
3000;SDS011;1510;51.072;6.678;2023-04-03T14:09:17;6.97;;;1.30;;
3000;SDS011;1510;51.072;6.678;2023-04-03T14:11:47;4.47;;;1.10;;
3000;SDS011;1510;51.072;6.678;2023-04-03T14:14:16;6.10;;;1.17;;
3000;SDS011;1510;51.072;6.678;2023-04-03T14:16:51;6.73;;;2.50;;
3000;SDS011;1510;51.072;6.678;2023-04-03T14:19:22;7.50;;;1.50;;
3000;SDS011;1510;51.072;6.678;2023-04-03T14:21:54;5.87;;;1.57;;
3000;SDS011;1510;51.072;6.678;2023-04-03T14:24:23;5.00;;;1.20;;
3000;SDS011;1510;51.072;6.678;2023-04-03T14:26:54;4.90;;;1.60;;
3000;SDS011;1510;51.072;6.678;2023-04-03T14:29:22;6.27;;;1.63;;
3000;SDS011;1510;51.072;6.678;2023-04-03T14:31:49;5.37;;;1.37;;
3000;SDS011;1510;51.072;6.678;2023-04-03T14:34:16;4.50;;;1.30;;
3000;SDS011;1510;51.072;6.678;2023-04-03T14:36:43;4.40;;;1.20;;
3000;SDS011;1510;51.072;6.678;2023-04-03T14:39:16;5.33;;;1.40;;
3000;SDS011;1510;51.072;6.678;2023-04-03T14:41:46;4.27;;;1.10;;
3000;SDS011;1510;51.072;6.678;2023-04-03T14:44:14;4.60;;;1.40;;
3000;SDS011;1510;51.072;6.678;2023-04-03T14:46:42;5.13;;;1.20;;
3000;SDS011;1510;51.072;6.678;2023-04-03T14:49:12;5.47;;;1.40;;
3000;SDS011;1510;51.072;6.678;2023-04-03T14:51:40;6.33;;;1.27;;
3000;SDS011;1510;51.072;6.678;2023-04-03T14:54:10;5.20;;;1.27;;
3000;SDS011;1510;51.072;6.678;2023-04-03T14:56:41;5.20;;;1.80;;
3000;SDS011;1510;51.072;6.678;2023-04-03T14:59:10;5.90;;;1.87;;
3000;SDS011;1510;51.072;6.678;2023-04-03T15:01:43;6.93;;;1.63;;
3000;SDS011;1510;51.072;6.678;2023-04-03T15:04:10;6.30;;;1.37;;
3000;SDS011;1510;51.072;6.678;2023-04-03T15:06:42;7.33;;;1.70;;
3000;SDS011;1510;51.072;6.678;2023-04-03T15:09:14;5.60;;;1.20;;
3000;SDS011;1510;51.072;6.678;2023-04-03T15:11:46;5.50;;;1.63;;
3000;SDS011;1510;51.072;6.678;2023-04-03T15:14:13;5.60;;;1.30;;
3000;SDS011;1510;51.072;6.678;2023-04-03T15:16:41;6.47;;;1.40;;
3000;SDS011;1510;51.072;6.678;2023-04-03T15:19:10;6.60;;;1.60;;
3000;SDS011;1510;51.072;6.678;2023-04-03T15:21:38;4.83;;;1.40;;
3000;SDS011;1510;51.072;6.678;2023-04-03T15:24:06;6.67;;;1.40;;
3000;SDS011;1510;51.072;6.678;2023-04-03T15:26:35;4.77;;;1.37;;
3000;SDS011;1510;51.072;6.678;2023-04-03T15:29:03;5.90;;;1.80;;
3000;SDS011;1510;51.072;6.678;2023-04-03T15:31:30;6.27;;;1.47;;
3000;SDS011;1510;51.072;6.678;2023-04-03T15:33:59;5.53;;;1.60;;
3000;SDS011;1510;51.072;6.678;2023-04-03T15:36:26;4.60;;;1.47;;
3000;SDS011;1510;51.072;6.678;2023-04-03T15:38:53;4.80;;;1.40;;
3000;SDS011;1510;51.072;6.678;2023-04-03T15:41:20;5.93;;;1.70;;
3000;SDS011;1510;51.072;6.678;2023-04-03T15:43:47;4.93;;;1.60;;
3000;SDS011;1510;51.072;6.678;2023-04-03T15:46:14;5.83;;;1.50;;